Midland, MI

8:42 PM EST on February 22, 2017 (GMT -0500)
Barstow

Weather History for KIKW - April, 2014

Change the Weather History Date:

Sunday, April 6, 2014

  Actual Average (KMBS) Record (KMBS)
Temperature  
Mean Temperature 40 °F -  
Max Temperature 55 °F 48 °F 68 °F (1997)
Min Temperature 24 °F 31 °F 17 °F (2003)
Degree Days  
Heating Degree Days 26    
Moisture  
Dew Point 25 °F    
Average Humidity 57    
Maximum Humidity 93    
Minimum Humidity 30    
Precipitation  
Precipitation 0.00 in - - ()
Sea Level Pressure  
Sea Level Pressure 30.09 in    
Wind  
Wind Speed 2 mph (SSW)    
Max Wind Speed 15 mph    
Max Gust Speed 21 mph    
Visibility 10 miles    
Events      
Averages and records for this station are not official NWS values.
T = Trace of Precipitation, MM = Missing Value Source: NWS Daily Summary

Daily Weather History Graph

Daily Weather History Graph

Search for Another Location

Airport or City:

Trip Planner

Search our weather history database for the weather conditions in past years. The results will help you decide how hot, cold, wet, or windy it might be!

Date:

Astronomy

Apr. 06, 2014 Rise Set
Actual Time 7:09 AM EDT 8:09 PM EDT
Civil Twilight 6:40 AM EDT 8:39 PM EDT
Nautical Twilight 6:05 AM EDT 9:14 PM EDT
Astronomical Twilight 5:29 AM EDT 9:50 PM EDT
Moon 12:03 PM EDT (4/6) 2:11 AM EDT (4/6)
Length of Visible Light 13h 58m
Length of Day
13h 00m
Waxing Crescent, 43% of the Moon is Illuminated
Apr 6
Waxing Crescent
Apr 7
First Quarter
Apr 15
Full
Apr 22
Last Quarter
Apr 29
New

Hourly Weather History & Observations

Time (EDT) Temp. Windchill Dew Point Humidity Pressure Visibility Wind Dir Wind Speed Gust Speed Precip Events Conditions
12:16 AM 28.4 °F - 21.2 °F 74% 30.15 in 10.0 mi Calm Calm - N/A   Clear
12:38 AM 28.4 °F - 21.2 °F 74% 30.14 in 10.0 mi Calm Calm - N/A   Clear
12:57 AM 28.4 °F - 21.2 °F 74% 30.15 in 10.0 mi Calm Calm - N/A   Clear
1:17 AM 28.4 °F - 23.0 °F 80% 30.15 in 10.0 mi Calm Calm - N/A   Clear
1:37 AM 28.4 °F - 23.0 °F 80% 30.14 in 10.0 mi Calm Calm - N/A   Clear
1:57 AM 26.6 °F - 21.2 °F 80% 30.14 in 10.0 mi Calm Calm - N/A   Clear
2:18 AM 28.4 °F - 23.0 °F 80% 30.15 in 10.0 mi Calm Calm - N/A   Clear
2:36 AM 28.4 °F - 21.2 °F 74% 30.15 in 10.0 mi Calm Calm - N/A   Clear
2:56 AM 26.6 °F - 23.0 °F 86% 30.15 in 10.0 mi Calm Calm - N/A   Clear
3:18 AM 28.4 °F - 21.2 °F 74% 30.15 in 10.0 mi Calm Calm - N/A   Clear
3:37 AM 26.6 °F - 23.0 °F 86% 30.14 in 10.0 mi Calm Calm - N/A   Clear
3:59 AM 26.6 °F - 23.0 °F 86% 30.14 in 10.0 mi Calm Calm - N/A   Clear
4:17 AM 26.6 °F - 23.0 °F 86% 30.14 in 10.0 mi Calm Calm - N/A   Clear
4:37 AM 26.6 °F - 23.0 °F 86% 30.14 in 10.0 mi Calm Calm - N/A   Clear
5:00 AM 26.6 °F - 23.0 °F 86% 30.14 in 10.0 mi Calm Calm - N/A   Clear
5:20 AM 26.6 °F - 23.0 °F 86% 30.14 in 10.0 mi Calm Calm - N/A   Clear
5:38 AM 26.6 °F - 23.0 °F 86% 30.14 in 10.0 mi Calm Calm - N/A   Clear
5:58 AM 26.6 °F - 23.0 °F 86% 30.14 in 10.0 mi Calm Calm - N/A   Clear
6:18 AM 26.6 °F - 23.0 °F 86% 30.14 in 10.0 mi Calm Calm - N/A   Clear
6:40 AM 26.6 °F - 23.0 °F 86% 30.14 in 10.0 mi Calm Calm - N/A   Clear
7:03 AM 24.8 °F - 23.0 °F 93% 30.15 in 10.0 mi Calm Calm - N/A   Clear
7:17 AM 26.6 °F - 23.0 °F 86% 30.15 in 10.0 mi Calm Calm - N/A   Clear
7:44 AM 26.6 °F - 23.0 °F 86% 30.15 in 10.0 mi Calm Calm - N/A   Clear
7:58 AM 26.6 °F - 24.8 °F 93% 30.16 in 10.0 mi Calm Calm - N/A   Clear
8:17 AM 30.2 °F - 26.6 °F 86% 30.16 in 10.0 mi Calm Calm - N/A   Clear
8:19 AM 30.0 °F - 27.1 °F 89% 30.16 in 10.0 mi Calm Calm - N/A   Clear
8:34 AM 31.8 °F - 25.9 °F 79% 30.16 in 10.0 mi Calm Calm - N/A   Clear
8:53 AM 34.9 °F - 25.2 °F 68% 30.16 in 10.0 mi Calm Calm - N/A   Clear
9:14 AM 37.6 °F 33.1 °F 23.9 °F 58% 30.16 in 10.0 mi SW 5.8 mph - N/A   Clear
9:33 AM 39.9 °F 35.8 °F 23.7 °F 52% 30.16 in 10.0 mi WSW 5.8 mph - N/A   Clear
9:53 AM 42.3 °F 37.9 °F 23.0 °F 47% 30.16 in 10.0 mi SW 6.9 mph - N/A   Clear
10:14 AM 44.2 °F 40.3 °F 22.3 °F 42% 30.16 in 10.0 mi SW 6.9 mph - N/A   Clear
10:33 AM 45.7 °F 41.0 °F 22.3 °F 40% 30.16 in 10.0 mi WSW 9.2 mph - N/A   Clear
10:53 AM 47.3 °F - 23.4 °F 39% 30.16 in 7.0 mi SSW 9.2 mph - N/A   Clear
11:14 AM 47.8 °F - 23.7 °F 39% 30.15 in 10.0 mi WSW 5.8 mph - N/A   Clear
11:33 AM 49.5 °F - 24.8 °F 38% 30.14 in 10.0 mi WSW 6.9 mph - N/A   Clear
11:53 AM 50.5 °F - 25.0 °F 37% 30.14 in 10.0 mi WSW 4.6 mph - N/A   Clear
12:14 PM 51.8 °F - 26.6 °F 38% 30.12 in 10.0 mi SSW 9.2 mph - N/A   Clear
12:33 PM 52.5 °F - 25.7 °F 35% 30.12 in 10.0 mi SSW 5.8 mph - N/A   Clear
12:54 PM 52.7 °F - 25.7 °F 35% 30.11 in 10.0 mi SSW 12.7 mph - N/A   Clear
1:13 PM 53.6 °F - 26.1 °F 35% 30.11 in 10.0 mi WSW 6.9 mph - N/A   Clear
1:33 PM 54.1 °F - 26.6 °F 35% 30.10 in 7.0 mi SSW 5.8 mph - N/A   Clear
1:54 PM 54.9 °F - 27.0 °F 34% 30.10 in 10.0 mi South 10.4 mph 16.1 mph N/A   Clear
2:13 PM 54.5 °F - 27.3 °F 35% 30.09 in 10.0 mi South 13.8 mph 19.6 mph N/A   Clear
2:33 PM 54.7 °F - 27.1 °F 35% 30.08 in 7.0 mi SSW 15.0 mph 20.7 mph N/A   Clear
2:54 PM 55.2 °F - 28.2 °F 36% 30.07 in 7.0 mi SW 10.4 mph 16.1 mph N/A   Clear
3:13 PM 55.0 °F - 26.6 °F 33% 30.07 in 10.0 mi SSW 10.4 mph 20.7 mph N/A   Clear
3:33 PM 55.8 °F - 26.2 °F 32% 30.06 in 10.0 mi SSW 13.8 mph - N/A   Clear
3:54 PM 55.2 °F - 26.6 °F 33% 30.05 in 10.0 mi SW 9.2 mph - N/A   Clear
4:13 PM 55.4 °F - 26.1 °F 32% 30.04 in 10.0 mi SW 9.2 mph - N/A   Clear
4:33 PM 55.4 °F - 25.3 °F 31% 30.04 in 10.0 mi SSW 8.1 mph - N/A   Clear
4:54 PM 55.0 °F - 24.3 °F 30% 30.02 in 7.0 mi South 10.4 mph 16.1 mph N/A   Clear
5:13 PM 55.2 °F - 25.0 °F 31% 30.01 in 10.0 mi SSW 9.2 mph - N/A   Clear
5:33 PM 55.0 °F - 24.6 °F 31% 30.00 in 10.0 mi SSW 6.9 mph - N/A   Clear
5:54 PM 54.9 °F - 24.4 °F 31% 29.99 in 10.0 mi SSE 9.2 mph - N/A   Clear
6:13 PM 55.4 °F - 25.2 °F 31% 30.00 in 10.0 mi SSW 6.9 mph - N/A   Clear
6:33 PM 54.9 °F - 25.0 °F 32% 30.00 in 10.0 mi SW 4.6 mph - N/A   Clear
6:54 PM 54.7 °F - 25.9 °F 33% 30.01 in 7.0 mi SSW 6.9 mph - N/A   Clear
7:13 PM 54.3 °F - 26.1 °F 34% 30.00 in 7.0 mi South 4.6 mph - N/A   Clear
7:33 PM 54.0 °F - 27.0 °F 35% 30.00 in 10.0 mi South 5.8 mph - N/A   Clear
7:54 PM 52.5 °F - 26.8 °F 37% 30.01 in 10.0 mi South 5.8 mph - N/A   Clear
8:13 PM 52.7 °F - 26.1 °F 36% 30.01 in 10.0 mi South 4.6 mph - N/A   Clear
8:33 PM 51.1 °F - 25.3 °F 37% 30.02 in 10.0 mi Calm Calm - N/A   Clear
8:54 PM 50.9 °F - 24.6 °F 36% 30.02 in 10.0 mi Calm Calm - N/A   Clear
9:13 PM 49.3 °F - 26.4 °F 41% 30.02 in 10.0 mi Calm Calm - N/A   Clear
9:33 PM 44.6 °F - 30.9 °F 59% 30.02 in 10.0 mi Calm Calm - N/A   Clear
9:54 PM 41.7 °F - 29.5 °F 62% 30.01 in 10.0 mi Calm Calm - N/A   Clear
10:13 PM 40.8 °F - 30.0 °F 65% 30.02 in 10.0 mi Calm Calm - N/A   Clear
10:34 PM 41.9 °F - 28.4 °F 59% 30.02 in 10.0 mi Calm Calm - N/A   Clear
10:53 PM 41.0 °F - 32.9 °F 73% 30.02 in 10.0 mi Calm Calm - N/A   Clear
11:13 PM 39.6 °F - 31.5 °F 73% 30.01 in 10.0 mi Calm Calm - N/A   Clear
11:34 PM 40.1 °F - 31.3 °F 71% 30.01 in 10.0 mi Calm Calm - N/A   Clear
11:53 PM 40.8 °F - 30.0 °F 65% 30.00 in 10.0 mi Calm Calm - N/A   Clear